Time;durP1;ratioP1;P1;durP2;ratioP2;P2;SDS_P1;SDS_P2;PMS_P1;PMS_P2;Temp;Humidity;BMP_temperature;BMP_pressure;BME280_temperature;BME280_humidity;BME280_pressure;Samples;Min_cycle;Max_cycle;Signal;HPM_P1;HPM_P2
2022/03/09 00:01:50;;;;;;;3.35;3.05;;;;;;;;;;5026645;28;20026;-72
2022/03/09 00:04:15;;;;;;;2.65;2.45;;;;;;;;;;5018120;28;20389;-73
2022/03/09 00:06:41;;;;;;;4.45;2.72;;;;;;;;;;5025380;28;20084;-73
2022/03/09 00:09:09;;;;;;;2.95;2.75;;;;;;;;;;5027881;28;20690;-72
2022/03/09 00:11:35;;;;;;;4.15;3.78;;;;;;;;;;5027169;28;20033;-73
2022/03/09 00:14:02;;;;;;;3.28;2.47;;;;;;;;;;5027626;28;20507;-73
2022/03/09 00:16:28;;;;;;;10.27;2.90;;;;;;;;;;5027092;28;20022;-73
2022/03/09 00:18:54;;;;;;;5.15;3.97;;;;;;;;;;5025352;28;20033;-73
2022/03/09 00:21:20;;;;;;;1.33;1.23;;;;;;;;;;5028923;28;20033;-73
2022/03/09 00:23:45;;;;;;;2.60;2.03;;;;;;;;;;5027424;28;20057;-73
2022/03/09 00:26:12;;;;;;;5.10;4.65;;;;;;;;;;5026260;28;20018;-73
2022/03/09 00:28:37;;;;;;;2.53;2.03;;;;;;;;;;5027046;28;20026;-73
2022/03/09 00:31:04;;;;;;;1.13;1.13;;;;;;;;;;5024730;28;20026;-73
2022/03/09 00:33:30;;;;;;;1.23;1.10;;;;;;;;;;5028925;28;20040;-73
2022/03/09 00:35:56;;;;;;;1.77;1.45;;;;;;;;;;5027076;28;20102;-73
2022/03/09 00:38:22;;;;;;;3.58;3.05;;;;;;;;;;5022386;28;20033;-73
2022/03/09 00:40:50;;;;;;;3.80;3.03;;;;;;;;;;5025926;28;20041;-73
2022/03/09 00:43:15;;;;;;;5.30;2.15;;;;;;;;;;5026955;28;20505;-73
2022/03/09 00:45:42;;;;;;;2.42;2.22;;;;;;;;;;5023203;28;20061;-72
2022/03/09 00:48:08;;;;;;;1.50;1.40;;;;;;;;;;5022273;28;20025;-73
2022/03/09 00:50:33;;;;;;;5.85;3.20;;;;;;;;;;5021606;28;20037;-73
2022/03/09 00:52:59;;;;;;;2.85;2.65;;;;;;;;;;5022917;28;20063;-72
2022/03/09 00:55:25;;;;;;;2.08;1.98;;;;;;;;;;5022320;28;20567;-73
2022/03/09 00:57:51;;;;;;;7.00;2.75;;;;;;;;;;5025994;28;20763;-73
2022/03/09 01:00:17;;;;;;;4.03;1.58;;;;;;;;;;5025020;28;20053;-72
2022/03/09 01:02:44;;;;;;;2.22;1.25;;;;;;;;;;5023650;28;20456;-73
2022/03/09 01:05:10;;;;;;;2.80;2.58;;;;;;;;;;5020378;28;20078;-73
2022/03/09 01:07:37;;;;;;;2.22;1.55;;;;;;;;;;5024760;28;20035;-72
2022/03/09 01:10:03;;;;;;;1.17;1.08;;;;;;;;;;5024797;28;20091;-73
2022/03/09 01:12:29;;;;;;;2.42;2.08;;;;;;;;;;5023880;28;20093;-73
2022/03/09 01:14:55;;;;;;;2.53;2.33;;;;;;;;;;5026966;28;20068;-72
2022/03/09 01:17:21;;;;;;;3.38;2.50;;;;;;;;;;5018011;28;20531;-73
2022/03/09 01:19:47;;;;;;;1.00;1.00;;;;;;;;;;5023209;28;20028;-72
2022/03/09 01:22:12;;;;;;;2.83;2.60;;;;;;;;;;5025917;28;20029;-73
2022/03/09 01:24:38;;;;;;;1.77;1.67;;;;;;;;;;5024893;28;20409;-72
2022/03/09 01:27:04;;;;;;;3.97;3.08;;;;;;;;;;5020047;28;20040;-73
2022/03/09 01:29:30;;;;;;;7.05;3.50;;;;;;;;;;5018243;28;20471;-73
2022/03/09 01:31:56;;;;;;;1.95;1.80;;;;;;;;;;5025621;28;20029;-73
2022/03/09 01:34:22;;;;;;;3.45;2.22;;;;;;;;;;5027969;28;20392;-73
2022/03/09 01:36:48;;;;;;;4.75;3.58;;;;;;;;;;5023294;28;20037;-73
2022/03/09 01:39:14;;;;;;;2.92;2.42;;;;;;;;;;5026829;28;20065;-72
2022/03/09 01:41:39;;;;;;;1.77;1.65;;;;;;;;;;5024019;28;20033;-72
2022/03/09 01:44:10;;;;;;;6.63;3.33;;;;;;;;;;5020349;28;20095;-73
2022/03/09 01:46:36;;;;;;;4.22;2.53;;;;;;;;;;5000346;28;20599;-72
2022/03/09 01:49:02;;;;;;;2.35;2.20;;;;;;;;;;5019964;28;20033;-72
2022/03/09 01:51:28;;;;;;;3.53;2.58;;;;;;;;;;5031853;28;20074;-73
2022/03/09 01:53:54;;;;;;;3.47;2.22;;;;;;;;;;5025604;28;20021;-73
2022/03/09 01:56:20;;;;;;;4.00;1.65;;;;;;;;;;5025245;28;20037;-72
2022/03/09 01:58:46;;;;;;;1.00;1.00;;;;;;;;;;5026678;28;20477;-73
2022/03/09 02:01:12;;;;;;;3.30;2.95;;;;;;;;;;5025748;28;20064;-73
2022/03/09 02:03:38;;;;;;;6.57;2.50;;;;;;;;;;5029895;28;20121;-73
2022/03/09 02:06:04;;;;;;;2.08;1.65;;;;;;;;;;5025536;28;20053;-73
2022/03/09 02:11:14;;;;;;;1.10;1.10;;;;;;;;;;5027688;28;20103;-73
2022/03/09 02:13:40;;;;;;;2.60;2.40;;;;;;;;;;5025624;28;20543;-73
2022/03/09 02:16:07;;;;;;;10.13;3.17;;;;;;;;;;5027798;28;20520;-73
2022/03/09 02:18:33;;;;;;;4.55;2.88;;;;;;;;;;5027762;28;20029;-73
2022/03/09 02:21:01;;;;;;;2.05;1.95;;;;;;;;;;5027362;28;20037;-73
2022/03/09 02:23:27;;;;;;;1.40;1.30;;;;;;;;;;5030064;28;20112;-73
2022/03/09 02:25:53;;;;;;;1.80;1.70;;;;;;;;;;5029162;28;20041;-73
2022/03/09 02:28:19;;;;;;;2.65;1.88;;;;;;;;;;5024365;28;20036;-72
2022/03/09 02:30:45;;;;;;;2.63;2.42;;;;;;;;;;5027395;28;20439;-72
2022/03/09 02:33:11;;;;;;;3.03;2.13;;;;;;;;;;5027261;28;20095;-73
2022/03/09 02:35:37;;;;;;;7.00;3.40;;;;;;;;;;5027994;28;20036;-73
2022/03/09 02:38:03;;;;;;;2.35;1.50;;;;;;;;;;5029426;28;20030;-72
2022/03/09 02:40:29;;;;;;;2.97;2.22;;;;;;;;;;5023855;28;20041;-72
2022/03/09 02:42:55;;;;;;;5.85;3.88;;;;;;;;;;5027071;28;20472;-73
2022/03/09 02:45:21;;;;;;;3.15;2.25;;;;;;;;;;5028524;28;20041;-73
2022/03/09 02:47:47;;;;;;;3.05;2.85;;;;;;;;;;5021879;28;20025;-72
2022/03/09 02:50:13;;;;;;;1.27;1.13;;;;;;;;;;5022208;28;20442;-73
2022/03/09 02:52:41;;;;;;;0.77;0.77;;;;;;;;;;5022920;28;20120;-73
2022/03/09 02:55:08;;;;;;;0.80;0.80;;;;;;;;;;5024370;28;20638;-72
2022/03/09 02:57:33;;;;;;;2.05;1.58;;;;;;;;;;5016015;28;20065;-72
2022/03/09 02:59:59;;;;;;;1.88;1.75;;;;;;;;;;5022226;28;20037;-73
2022/03/09 03:02:25;;;;;;;3.15;2.85;;;;;;;;;;5017397;28;20108;-73
2022/03/09 03:07:21;;;;;;;5.30;2.33;;;;;;;;;;5111928;27;20864;-71
2022/03/09 03:09:47;;;;;;;1.60;1.50;;;;;;;;;;5103664;28;20023;-71
2022/03/09 03:12:13;;;;;;;1.30;0.95;;;;;;;;;;5095941;28;20039;-72
2022/03/09 03:14:38;;;;;;;5.55;2.72;;;;;;;;;;5104714;28;20019;-73
2022/03/09 03:17:04;;;;;;;1.08;0.98;;;;;;;;;;5096781;28;20024;-73
2022/03/09 03:19:30;;;;;;;5.10;3.33;;;;;;;;;;5100276;28;20027;-73
2022/03/09 03:21:56;;;;;;;2.05;1.95;;;;;;;;;;5094474;28;20036;-73
2022/03/09 03:24:22;;;;;;;1.88;1.77;;;;;;;;;;5098088;28;20030;-73
2022/03/09 03:26:48;;;;;;;1.65;1.55;;;;;;;;;;5094038;28;20093;-73
2022/03/09 03:29:14;;;;;;;0.70;0.70;;;;;;;;;;5099755;28;20024;-73
2022/03/09 03:31:40;;;;;;;1.58;1.48;;;;;;;;;;5099048;28;20027;-73
2022/03/09 03:34:06;;;;;;;1.55;1.50;;;;;;;;;;5100087;28;20038;-73
2022/03/09 03:36:31;;;;;;;2.03;1.10;;;;;;;;;;5097781;28;20505;-73
2022/03/09 03:38:57;;;;;;;0.98;0.80;;;;;;;;;;5103160;28;20031;-73
2022/03/09 03:41:23;;;;;;;1.48;1.38;;;;;;;;;;5096753;28;20024;-73
2022/03/09 03:43:49;;;;;;;1.58;1.20;;;;;;;;;;5099897;28;20478;-73
2022/03/09 03:46:15;;;;;;;2.42;1.67;;;;;;;;;;5101407;28;20024;-73
2022/03/09 03:48:41;;;;;;;0.68;0.68;;;;;;;;;;5095546;28;20501;-71
2022/03/09 03:51:07;;;;;;;1.15;1.05;;;;;;;;;;5101594;28;20023;-71
2022/03/09 03:53:33;;;;;;;1.70;1.58;;;;;;;;;;5100583;28;20415;-71
2022/03/09 03:55:59;;;;;;;4.20;2.17;;;;;;;;;;5100332;28;20071;-71
2022/03/09 03:58:25;;;;;;;3.95;3.30;;;;;;;;;;5100757;28;20069;-71
2022/03/09 04:00:50;;;;;;;1.75;1.65;;;;;;;;;;5095151;28;20479;-71
2022/03/09 04:03:16;;;;;;;0.57;0.57;;;;;;;;;;5095972;28;20475;-71
2022/03/09 04:05:42;;;;;;;4.88;3.35;;;;;;;;;;5100779;28;20036;-71
2022/03/09 04:08:08;;;;;;;2.03;1.33;;;;;;;;;;5088401;28;20044;-71
2022/03/09 04:10:34;;;;;;;0.75;0.75;;;;;;;;;;5097540;28;20134;-71
2022/03/09 04:13:03;;;;;;;3.63;2.72;;;;;;;;;;5099087;28;20035;-71
2022/03/09 04:15:29;;;;;;;1.48;1.38;;;;;;;;;;5096214;28;20052;-71
2022/03/09 04:17:55;;;;;;;2.83;2.22;;;;;;;;;;5084221;28;20501;-71
2022/03/09 04:20:21;;;;;;;0.80;0.80;;;;;;;;;;5084952;28;20138;-71
2022/03/09 04:22:47;;;;;;;3.10;1.85;;;;;;;;;;5084965;28;20376;-71
2022/03/09 04:25:13;;;;;;;1.48;1.38;;;;;;;;;;5081048;28;20032;-71
2022/03/09 04:27:39;;;;;;;1.85;1.75;;;;;;;;;;5075511;28;20531;-71
2022/03/09 04:30:06;;;;;;;2.10;1.83;;;;;;;;;;5079994;28;20051;-71
2022/03/09 04:32:32;;;;;;;1.70;1.45;;;;;;;;;;5080635;28;20028;-71
2022/03/09 04:34:58;;;;;;;1.60;0.98;;;;;;;;;;5072760;28;20058;-71
2022/03/09 04:37:24;;;;;;;1.20;1.20;;;;;;;;;;5080138;28;20467;-71
2022/03/09 04:39:50;;;;;;;0.63;0.63;;;;;;;;;;5082662;28;20107;-71
2022/03/09 04:42:16;;;;;;;2.60;1.70;;;;;;;;;;5080317;28;20470;-71
2022/03/09 04:44:42;;;;;;;0.95;0.95;;;;;;;;;;5076680;28;20066;-72
2022/03/09 04:47:08;;;;;;;0.75;0.75;;;;;;;;;;5080651;28;20390;-72
2022/03/09 04:49:34;;;;;;;0.80;0.55;;;;;;;;;;5082003;28;20115;-72
2022/03/09 04:52:00;;;;;;;6.05;1.27;;;;;;;;;;5078007;28;20021;-72
2022/03/09 04:54:26;;;;;;;1.55;1.10;;;;;;;;;;5079919;28;20498;-72
2022/03/09 04:56:52;;;;;;;0.47;0.47;;;;;;;;;;5080430;28;20503;-72
2022/03/09 04:59:18;;;;;;;2.70;2.03;;;;;;;;;;5087808;28;20094;-71
2022/03/09 05:01:44;;;;;;;0.68;0.65;;;;;;;;;;5080637;28;20154;-71
2022/03/09 05:04:10;;;;;;;0.40;0.40;;;;;;;;;;5083063;28;20084;-72
2022/03/09 05:06:36;;;;;;;0.77;0.77;;;;;;;;;;5074890;28;20059;-72
2022/03/09 05:09:01;;;;;;;0.47;0.47;;;;;;;;;;5073004;28;20050;-71
2022/03/09 05:11:27;;;;;;;0.32;0.32;;;;;;;;;;5084050;28;20039;-72
2022/03/09 05:13:53;;;;;;;1.52;1.42;;;;;;;;;;5074390;28;20040;-72
2022/03/09 05:16:19;;;;;;;1.08;0.82;;;;;;;;;;5074985;28;20028;-72
2022/03/09 05:18:45;;;;;;;1.35;1.25;;;;;;;;;;5085292;28;20093;-72
2022/03/09 05:21:11;;;;;;;1.52;1.38;;;;;;;;;;5083108;28;20032;-72
2022/03/09 05:23:37;;;;;;;0.82;0.82;;;;;;;;;;5080219;28;20028;-72
2022/03/09 05:26:03;;;;;;;1.73;1.08;;;;;;;;;;5085535;28;20040;-72
2022/03/09 05:28:29;;;;;;;3.40;2.25;;;;;;;;;;5072278;28;20486;-72
2022/03/09 05:30:54;;;;;;;2.85;2.65;;;;;;;;;;5077237;28;20316;-72
2022/03/09 05:33:20;;;;;;;1.48;1.38;;;;;;;;;;5079946;28;20482;-72
2022/03/09 05:35:46;;;;;;;1.58;1.48;;;;;;;;;;5083702;28;20032;-73
2022/03/09 05:38:12;;;;;;;3.00;2.25;;;;;;;;;;5078459;28;20107;-72
2022/03/09 05:40:38;;;;;;;0.65;0.52;;;;;;;;;;5081886;28;20470;-73
2022/03/09 05:43:04;;;;;;;0.93;0.70;;;;;;;;;;5075352;28;20036;-73
2022/03/09 05:45:30;;;;;;;0.88;0.88;;;;;;;;;;5072225;28;20032;-73
2022/03/09 05:47:56;;;;;;;1.85;1.75;;;;;;;;;;5079369;28;20020;-73
2022/03/09 05:50:22;;;;;;;4.10;1.48;;;;;;;;;;5078241;28;20684;-74
2022/03/09 05:52:48;;;;;;;5.95;4.32;;;;;;;;;;5077991;28;20786;-71
2022/03/09 05:55:14;;;;;;;1.30;0.63;;;;;;;;;;5083637;28;20032;-71
2022/03/09 05:57:40;;;;;;;3.42;2.83;;;;;;;;;;5082347;28;20103;-72
2022/03/09 06:00:07;;;;;;;1.08;1.08;;;;;;;;;;5084481;28;20600;-75
2022/03/09 06:02:33;;;;;;;8.07;2.85;;;;;;;;;;5080496;28;20024;-78
2022/03/09 06:04:59;;;;;;;0.40;0.40;;;;;;;;;;5076386;28;20031;-73
2022/03/09 06:07:25;;;;;;;0.65;0.65;;;;;;;;;;5079295;28;20052;-76
2022/03/09 06:09:51;;;;;;;2.95;2.75;;;;;;;;;;5074872;28;20024;-76
2022/03/09 06:12:17;;;;;;;7.00;1.90;;;;;;;;;;5082223;28;20034;-75
2022/03/09 06:14:43;;;;;;;0.98;0.57;;;;;;;;;;5081108;28;20028;-86
2022/03/09 06:17:09;;;;;;;2.00;0.82;;;;;;;;;;5078491;28;20097;-74
2022/03/09 06:19:35;;;;;;;0.75;0.75;;;;;;;;;;5083818;28;20020;-72
2022/03/09 06:22:01;;;;;;;0.10;0.10;;;;;;;;;;5074581;28;20063;-71
2022/03/09 06:24:27;;;;;;;4.72;3.33;;;;;;;;;;5072291;28;20622;-71
2022/03/09 06:26:53;;;;;;;1.40;1.15;;;;;;;;;;5073630;28;20058;-71
2022/03/09 06:29:19;;;;;;;4.20;2.92;;;;;;;;;;5077419;28;20021;-72
2022/03/09 06:31:46;;;;;;;2.90;1.13;;;;;;;;;;5085055;28;20024;-71
2022/03/09 06:34:12;;;;;;;1.45;1.35;;;;;;;;;;5070560;28;20372;-72
2022/03/09 06:36:42;;;;;;;0.57;0.57;;;;;;;;;;5077443;28;20043;-71
2022/03/09 06:39:08;;;;;;;4.15;1.85;;;;;;;;;;5073446;28;20080;-71
2022/03/09 06:41:34;;;;;;;0.30;0.30;;;;;;;;;;5084765;28;20484;-71
2022/03/09 06:44:00;;;;;;;6.28;2.10;;;;;;;;;;5075143;28;20090;-71
2022/03/09 06:46:26;;;;;;;1.20;1.10;;;;;;;;;;5081364;28;20028;-71
2022/03/09 06:48:52;;;;;;;0.98;0.95;;;;;;;;;;5082050;28;20023;-72
2022/03/09 06:51:18;;;;;;;0.50;0.50;;;;;;;;;;5085496;28;20024;-72
2022/03/09 06:53:45;;;;;;;0.70;0.50;;;;;;;;;;5080395;28;20028;-70
2022/03/09 06:56:11;;;;;;;9.93;3.85;;;;;;;;;;5080151;28;20055;-71
2022/03/09 06:58:37;;;;;;;0.38;0.38;;;;;;;;;;5073588;28;20556;-71
2022/03/09 07:01:03;;;;;;;1.80;1.70;;;;;;;;;;5074451;28;20034;-71
2022/03/09 07:03:30;;;;;;;1.17;1.15;;;;;;;;;;5070423;28;20119;-71
2022/03/09 07:05:56;;;;;;;0.85;0.85;;;;;;;;;;5073469;28;20479;-71
2022/03/09 07:08:22;;;;;;;7.93;3.40;;;;;;;;;;5077484;28;20038;-71
2022/03/09 07:10:48;;;;;;;1.20;0.90;;;;;;;;;;5079466;28;20020;-71
2022/03/09 07:13:14;;;;;;;0.90;0.90;;;;;;;;;;5071010;28;20082;-71
2022/03/09 07:15:40;;;;;;;2.50;2.20;;;;;;;;;;5074014;28;20032;-73
2022/03/09 07:18:06;;;;;;;2.25;2.13;;;;;;;;;;5068387;28;20032;-73
2022/03/09 07:20:32;;;;;;;2.13;1.92;;;;;;;;;;5077355;28;20034;-72
2022/03/09 07:22:58;;;;;;;1.70;1.33;;;;;;;;;;5075077;28;20024;-72
2022/03/09 07:25:24;;;;;;;10.27;2.90;;;;;;;;;;5072356;28;20032;-72
2022/03/09 07:27:50;;;;;;;1.48;1.38;;;;;;;;;;5078990;28;20089;-72
2022/03/09 07:30:16;;;;;;;2.08;1.17;;;;;;;;;;5074378;28;20025;-72
2022/03/09 07:32:42;;;;;;;1.50;1.40;;;;;;;;;;5073889;28;20027;-72
2022/03/09 07:35:08;;;;;;;0.55;0.55;;;;;;;;;;5072848;28;20017;-72
2022/03/09 07:37:34;;;;;;;1.55;1.45;;;;;;;;;;5076711;28;20026;-72
2022/03/09 07:40:00;;;;;;;1.00;1.00;;;;;;;;;;5073291;28;20020;-72
2022/03/09 07:42:26;;;;;;;0.47;0.47;;;;;;;;;;5065598;28;20479;-72
2022/03/09 07:44:52;;;;;;;2.33;0.98;;;;;;;;;;5077766;28;20070;-72
2022/03/09 07:47:18;;;;;;;0.60;0.60;;;;;;;;;;5065120;28;20041;-72
2022/03/09 07:49:44;;;;;;;0.60;0.60;;;;;;;;;;5073581;28;20027;-72
2022/03/09 07:52:10;;;;;;;0.60;0.57;;;;;;;;;;5064768;28;20429;-73
2022/03/09 07:54:36;;;;;;;0.43;0.40;;;;;;;;;;5068693;28;20344;-73
2022/03/09 07:57:02;;;;;;;0.73;0.73;;;;;;;;;;5073878;28;20028;-72
2022/03/09 07:59:28;;;;;;;2.20;1.52;;;;;;;;;;5066876;28;20495;-73
2022/03/09 08:01:55;;;;;;;1.50;1.40;;;;;;;;;;5073287;28;20057;-73
2022/03/09 08:04:22;;;;;;;0.55;0.55;;;;;;;;;;5081787;28;20444;-72
2022/03/09 08:06:48;;;;;;;0.10;0.10;;;;;;;;;;5084170;28;20487;-72
2022/03/09 08:09:14;;;;;;;3.10;2.40;;;;;;;;;;5074144;28;20046;-72
2022/03/09 08:11:40;;;;;;;0.40;0.40;;;;;;;;;;5086525;28;20183;-73
2022/03/09 08:14:06;;;;;;;1.40;1.30;;;;;;;;;;5068832;28;20529;-73
2022/03/09 08:16:32;;;;;;;1.17;1.10;;;;;;;;;;5080418;28;20531;-71
2022/03/09 08:18:58;;;;;;;1.25;1.15;;;;;;;;;;5088224;28;20036;-74
2022/03/09 08:21:24;;;;;;;1.48;0.68;;;;;;;;;;5078281;28;20024;-73
2022/03/09 08:23:50;;;;;;;2.03;1.83;;;;;;;;;;5079523;28;20020;-71
2022/03/09 08:26:16;;;;;;;0.95;0.90;;;;;;;;;;5068399;28;20383;-71
2022/03/09 08:28:45;;;;;;;2.90;1.75;;;;;;;;;;5075381;28;20104;-74
2022/03/09 08:31:10;;;;;;;1.05;0.90;;;;;;;;;;5066328;28;20024;-73
2022/03/09 08:33:37;;;;;;;2.40;1.27;;;;;;;;;;5082736;28;20024;-74
2022/03/09 08:36:03;;;;;;;0.95;0.95;;;;;;;;;;5081047;28;20020;-73
2022/03/09 08:38:29;;;;;;;0.30;0.30;;;;;;;;;;5073865;28;20103;-74
2022/03/09 08:40:55;;;;;;;0.35;0.35;;;;;;;;;;5084292;28;20035;-73
2022/03/09 08:43:21;;;;;;;0.45;0.45;;;;;;;;;;5071974;28;20053;-72
2022/03/09 08:45:47;;;;;;;1.00;1.00;;;;;;;;;;5069470;28;20031;-70
2022/03/09 08:48:13;;;;;;;1.05;0.60;;;;;;;;;;5074382;28;20118;-73
2022/03/09 08:50:39;;;;;;;1.75;1.55;;;;;;;;;;5083923;28;20020;-72
2022/03/09 08:53:08;;;;;;;0.50;0.50;;;;;;;;;;5077787;28;20374;-74
2022/03/09 08:55:34;;;;;;;1.75;1.13;;;;;;;;;;5076676;28;20023;-75
2022/03/09 08:58:00;;;;;;;0.10;0.10;;;;;;;;;;5086251;28;20039;-75
2022/03/09 09:00:26;;;;;;;0.32;0.32;;;;;;;;;;5077439;28;20363;-75
2022/03/09 09:02:52;;;;;;;1.50;0.80;;;;;;;;;;5069990;28;20097;-75
2022/03/09 09:05:18;;;;;;;0.70;0.68;;;;;;;;;;5077969;28;20034;-73
2022/03/09 09:07:44;;;;;;;0.57;0.55;;;;;;;;;;5077453;28;20394;-72
2022/03/09 09:10:11;;;;;;;0.45;0.45;;;;;;;;;;5082921;28;20243;-73
2022/03/09 09:12:37;;;;;;;0.10;0.10;;;;;;;;;;5083114;28;20028;-72
2022/03/09 09:15:03;;;;;;;0.00;0.00;;;;;;;;;;5070237;28;20166;-71
2022/03/09 09:17:29;;;;;;;0.17;0.17;;;;;;;;;;5075575;28;20051;-73
2022/03/09 09:19:55;;;;;;;1.17;0.55;;;;;;;;;;5068228;28;20447;-73
2022/03/09 09:22:21;;;;;;;0.30;0.30;;;;;;;;;;5076829;28;20051;-73
2022/03/09 09:24:47;;;;;;;0.57;0.57;;;;;;;;;;5072099;28;20619;-73
2022/03/09 09:27:13;;;;;;;0.60;0.60;;;;;;;;;;5069497;28;20059;-76
2022/03/09 09:29:38;;;;;;;0.90;0.50;;;;;;;;;;5070585;28;20043;-75
2022/03/09 09:32:05;;;;;;;0.65;0.65;;;;;;;;;;5072013;28;20021;-75
2022/03/09 09:34:30;;;;;;;1.10;0.88;;;;;;;;;;5075300;28;21514;-75
2022/03/09 09:36:57;;;;;;;0.82;0.82;;;;;;;;;;5076094;28;20032;-75
2022/03/09 09:39:23;;;;;;;0.03;0.03;;;;;;;;;;5078961;28;20059;-75
2022/03/09 09:41:52;;;;;;;0.47;0.47;;;;;;;;;;5075233;28;20455;-75
2022/03/09 09:44:20;;;;;;;1.38;0.93;;;;;;;;;;5071166;28;20118;-75
2022/03/09 09:46:46;;;;;;;2.13;1.65;;;;;;;;;;5057784;28;20040;-75
2022/03/09 09:49:13;;;;;;;0.10;0.10;;;;;;;;;;5067464;28;20016;-75
2022/03/09 09:51:40;;;;;;;0.08;0.08;;;;;;;;;;5068444;28;20149;-75
2022/03/09 09:54:07;;;;;;;0.10;0.10;;;;;;;;;;5070268;28;20131;-75
2022/03/09 09:56:36;;;;;;;0.55;0.55;;;;;;;;;;5075302;28;20104;-75
2022/03/09 09:59:02;;;;;;;0.20;0.20;;;;;;;;;;5073598;28;20100;-74
2022/03/09 10:01:28;;;;;;;0.55;0.55;;;;;;;;;;5072106;28;20024;-74
2022/03/09 10:03:54;;;;;;;1.00;0.77;;;;;;;;;;5073905;28;20039;-74
2022/03/09 10:06:21;;;;;;;0.10;0.10;;;;;;;;;;5067880;28;20044;-75
2022/03/09 10:09:00;;;;;;;0.45;0.45;;;;;;;;;;5070929;28;20058;-75
2022/03/09 10:11:43;;;;;;;0.68;0.68;;;;;;;;;;5069309;28;20078;-75
2022/03/09 10:14:09;;;;;;;0.13;0.13;;;;;;;;;;5067810;28;20028;-75
2022/03/09 10:16:35;;;;;;;0.57;0.50;;;;;;;;;;5069754;28;20019;-75
2022/03/09 10:19:01;;;;;;;0.30;0.30;;;;;;;;;;5071924;28;20356;-75
2022/03/09 10:21:35;;;;;;;4.18;0.95;;;;;;;;;;5075321;28;20482;-75
2022/03/09 10:24:09;;;;;;;0.50;0.50;;;;;;;;;;5068381;28;20031;-75
2022/03/09 10:26:35;;;;;;;1.20;0.80;;;;;;;;;;5061614;28;20020;-75
2022/03/09 10:29:30;;;;;;;0.38;0.20;;;;;;;;;;5076947;28;20055;-75
2022/03/09 10:31:59;;;;;;;0.10;0.10;;;;;;;;;;5064795;28;20037;-75
2022/03/09 10:34:26;;;;;;;1.60;1.20;;;;;;;;;;5067068;28;20028;-75
2022/03/09 10:37:01;;;;;;;3.25;0.55;;;;;;;;;;5062059;28;20453;-75
2022/03/09 10:39:29;;;;;;;1.55;0.98;;;;;;;;;;5078762;28;20089;-75
2022/03/09 10:41:58;;;;;;;1.80;0.85;;;;;;;;;;5066003;28;20107;-75
2022/03/09 10:44:41;;;;;;;0.45;0.45;;;;;;;;;;5067774;28;20383;-75
2022/03/09 10:47:07;;;;;;;0.30;0.30;;;;;;;;;;5070074;28;20047;-75
2022/03/09 10:49:34;;;;;;;0.47;0.47;;;;;;;;;;5072171;28;20016;-75
2022/03/09 10:52:00;;;;;;;0.88;0.25;;;;;;;;;;5076081;28;20052;-73
2022/03/09 10:54:27;;;;;;;1.65;0.98;;;;;;;;;;5063846;28;20154;-73
2022/03/09 10:57:04;;;;;;;0.22;0.22;;;;;;;;;;5068380;28;20398;-71
2022/03/09 10:59:42;;;;;;;0.32;0.25;;;;;;;;;;5070000;28;20020;-75
2022/03/09 11:02:09;;;;;;;0.32;0.32;;;;;;;;;;5075760;28;20047;-72
2022/03/09 11:04:35;;;;;;;0.00;0.00;;;;;;;;;;5076352;28;20236;-71
2022/03/09 11:07:02;;;;;;;0.05;0.05;;;;;;;;;;5070047;28;20040;-71
2022/03/09 11:09:28;;;;;;;0.25;0.20;;;;;;;;;;5068160;28;20021;-69
2022/03/09 11:11:54;;;;;;;0.25;0.25;;;;;;;;;;5066353;28;20039;-70
2022/03/09 11:14:20;;;;;;;0.63;0.28;;;;;;;;;;5069116;28;20202;-70
2022/03/09 11:16:47;;;;;;;0.17;0.17;;;;;;;;;;5071725;28;20024;-69
2022/03/09 11:19:30;;;;;;;;;;;;;;;;;;;;;
2022/03/09 11:22:00;;;;;;;0.30;0.30;;;;;;;;;;5074673;28;20042;-69
2022/03/09 11:24:26;;;;;;;0.20;0.20;;;;;;;;;;5080538;28;20448;-70
2022/03/09 11:26:55;;;;;;;0.90;0.90;;;;;;;;;;5077966;28;20021;-70
2022/03/09 11:29:35;;;;;;;2.35;0.65;;;;;;;;;;5077393;28;20166;-71
2022/03/09 11:32:02;;;;;;;0.20;0.20;;;;;;;;;;5077050;28;20039;-70
2022/03/09 11:34:38;;;;;;;0.40;0.40;;;;;;;;;;5073485;28;20437;-72
2022/03/09 11:37:34;;;;;;;0.43;0.43;;;;;;;;;;5072492;28;20388;-70
2022/03/09 11:40:06;;;;;;;0.47;0.47;;;;;;;;;;5079220;28;20028;-71
2022/03/09 11:42:34;;;;;;;3.55;1.08;;;;;;;;;;5082911;28;20035;-70
2022/03/09 11:45:16;;;;;;;2.95;0.73;;;;;;;;;;5076291;28;20166;-72
2022/03/09 11:47:57;;;;;;;0.73;0.73;;;;;;;;;;5084176;28;20490;-72
2022/03/09 11:50:23;;;;;;;2.90;1.17;;;;;;;;;;5075096;28;20413;-71
2022/03/09 11:52:57;;;;;;;6.13;1.38;;;;;;;;;;5076661;28;20031;-71
2022/03/09 11:55:23;;;;;;;0.05;0.05;;;;;;;;;;5067090;28;20028;-70
2022/03/09 11:57:49;;;;;;;0.22;0.22;;;;;;;;;;5082614;28;20080;-71
2022/03/09 12:00:16;;;;;;;0.63;0.63;;;;;;;;;;5075021;28;20029;-71
2022/03/09 12:02:42;;;;;;;3.85;0.70;;;;;;;;;;5071529;28;20016;-71
2022/03/09 12:05:31;;;;;;;0.40;0.17;;;;;;;;;;5064916;28;20078;-71
2022/03/09 12:07:58;;;;;;;0.00;0.00;;;;;;;;;;5073093;28;20495;-71
2022/03/09 12:10:41;;;;;;;1.35;0.95;;;;;;;;;;5070036;28;20021;-72
2022/03/09 12:13:11;;;;;;;0.47;0.20;;;;;;;;;;5068946;28;20056;-72
2022/03/09 12:15:56;;;;;;;0.90;0.43;;;;;;;;;;5068564;28;20043;-71
2022/03/09 12:18:35;;;;;;;0.47;0.43;;;;;;;;;;5066043;28;20564;-77
2022/03/09 12:21:01;;;;;;;0.50;0.50;;;;;;;;;;5076858;28;20039;-70
2022/03/09 12:23:27;;;;;;;0.90;0.90;;;;;;;;;;5079951;28;20123;-71
2022/03/09 12:25:54;;;;;;;0.10;0.10;;;;;;;;;;5076309;28;20050;-71
2022/03/09 12:28:23;;;;;;;0.32;0.32;;;;;;;;;;5071094;28;20421;-71
2022/03/09 12:30:53;;;;;;;0.98;0.52;;;;;;;;;;5074866;28;20513;-70
2022/03/09 12:33:25;;;;;;;0.65;0.65;;;;;;;;;;5071079;28;20082;-70
2022/03/09 12:35:51;;;;;;;2.55;1.27;;;;;;;;;;5065304;28;20089;-71
2022/03/09 12:38:18;;;;;;;0.47;0.43;;;;;;;;;;5072520;28;20036;-70
2022/03/09 12:41:03;;;;;;;0.25;0.25;;;;;;;;;;5078526;28;20418;-70
2022/03/09 12:47:03;;;;;;;0.40;0.40;;;;;;;;;;5008394;28;20534;-71
2022/03/09 12:49:31;;;;;;;1.45;1.15;;;;;;;;;;5013116;28;20017;-70
2022/03/09 12:51:59;;;;;;;0.68;0.38;;;;;;;;;;5073902;28;20094;-71
2022/03/09 12:54:34;;;;;;;0.75;0.75;;;;;;;;;;5072186;28;20028;-71
2022/03/09 12:57:19;;;;;;;0.77;0.75;;;;;;;;;;5071050;28;20112;-71
2022/03/09 12:59:53;;;;;;;1.38;0.75;;;;;;;;;;5078368;28;20028;-69
2022/03/09 13:02:22;;;;;;;1.45;1.35;;;;;;;;;;5068550;28;20029;-71
2022/03/09 13:05:02;;;;;;;0.47;0.47;;;;;;;;;;5074374;28;20024;-69
2022/03/09 13:07:29;;;;;;;0.70;0.70;;;;;;;;;;5074208;28;20052;-69
2022/03/09 13:10:05;;;;;;;3.92;1.15;;;;;;;;;;5071143;28;20471;-69
2022/03/09 13:12:32;;;;;;;1.35;1.25;;;;;;;;;;5075771;28;20043;-69
2022/03/09 13:14:58;;;;;;;0.30;0.30;;;;;;;;;;5085441;28;20060;-72
2022/03/09 13:17:24;;;;;;;1.35;1.08;;;;;;;;;;5083700;28;20391;-72
2022/03/09 13:19:50;;;;;;;0.90;0.85;;;;;;;;;;5073166;28;20089;-70
2022/03/09 13:22:16;;;;;;;3.67;1.25;;;;;;;;;;5067746;28;20025;-70
2022/03/09 13:24:42;;;;;;;1.40;1.10;;;;;;;;;;5078646;28;20035;-70
2022/03/09 13:27:18;;;;;;;0.75;0.75;;;;;;;;;;5069156;28;20036;-70
2022/03/09 13:29:44;;;;;;;0.73;0.40;;;;;;;;;;5076191;28;20505;-70
2022/03/09 13:32:11;;;;;;;2.20;1.10;;;;;;;;;;5072678;28;20374;-70
2022/03/09 13:34:37;;;;;;;1.98;0.93;;;;;;;;;;5068546;28;20540;-71
2022/03/09 13:37:18;;;;;;;2.35;1.08;;;;;;;;;;5070995;28;20111;-71
2022/03/09 13:39:47;;;;;;;1.67;0.77;;;;;;;;;;5070315;28;20039;-70
2022/03/09 13:42:26;;;;;;;0.98;0.68;;;;;;;;;;5067474;28;20448;-71
2022/03/09 13:45:04;;;;;;;0.85;0.57;;;;;;;;;;5072910;28;20111;-70
2022/03/09 13:47:31;;;;;;;1.58;0.75;;;;;;;;;;5068069;28;20036;-70
2022/03/09 13:49:57;;;;;;;1.67;1.38;;;;;;;;;;5076922;28;20022;-70
2022/03/09 13:52:24;;;;;;;0.38;0.38;;;;;;;;;;5076422;28;20357;-71
2022/03/09 13:54:50;;;;;;;2.05;1.10;;;;;;;;;;5078293;28;20063;-70
2022/03/09 13:57:28;;;;;;;0.20;0.20;;;;;;;;;;5076293;28;20074;-71
2022/03/09 13:59:54;;;;;;;0.70;0.70;;;;;;;;;;5077713;28;20031;-70
2022/03/09 14:02:21;;;;;;;1.15;0.63;;;;;;;;;;5071353;28;20083;-70
2022/03/09 14:04:48;;;;;;;1.65;1.05;;;;;;;;;;5078962;28;22095;-71
2022/03/09 14:07:14;;;;;;;1.13;1.10;;;;;;;;;;5077853;28;20499;-70
2022/03/09 14:09:40;;;;;;;0.10;0.10;;;;;;;;;;5075141;28;20044;-69
2022/03/09 14:12:13;;;;;;;0.80;0.43;;;;;;;;;;5076496;28;20557;-70
2022/03/09 14:14:40;;;;;;;0.52;0.40;;;;;;;;;;5071822;28;20045;-71
2022/03/09 14:17:06;;;;;;;1.10;0.73;;;;;;;;;;5077670;28;20687;-71
2022/03/09 14:19:32;;;;;;;0.60;0.60;;;;;;;;;;5080777;28;20043;-71
2022/03/09 14:21:58;;;;;;;2.63;0.98;;;;;;;;;;5075590;28;20032;-71
2022/03/09 14:24:24;;;;;;;0.40;0.30;;;;;;;;;;5075349;28;20032;-71
2022/03/09 14:26:52;;;;;;;0.65;0.55;;;;;;;;;;5077215;28;20191;-71
2022/03/09 14:29:18;;;;;;;0.38;0.38;;;;;;;;;;5072528;28;20055;-71
2022/03/09 14:31:46;;;;;;;4.68;0.93;;;;;;;;;;5075047;28;20142;-71
2022/03/09 14:34:12;;;;;;;0.45;0.43;;;;;;;;;;5069793;28;20031;-71
2022/03/09 14:36:38;;;;;;;0.85;0.60;;;;;;;;;;5072686;28;20512;-70
2022/03/09 14:39:05;;;;;;;0.80;0.80;;;;;;;;;;5073996;28;20024;-71
2022/03/09 14:41:31;;;;;;;1.15;0.68;;;;;;;;;;5073043;28;20077;-70
2022/03/09 14:43:57;;;;;;;0.75;0.75;;;;;;;;;;5074978;28;20032;-71
2022/03/09 14:46:23;;;;;;;0.35;0.35;;;;;;;;;;5075168;28;20678;-71
2022/03/09 14:48:49;;;;;;;1.20;1.00;;;;;;;;;;5076428;28;20467;-71
2022/03/09 14:51:17;;;;;;;0.93;0.30;;;;;;;;;;5083037;28;20394;-72
2022/03/09 14:53:43;;;;;;;0.95;0.73;;;;;;;;;;5081591;28;20035;-71